createdAt,value
2018-11-29T00:00:04.415Z,536.6
2018-11-29T00:01:06.848Z,536.4
2018-11-29T00:02:09.279Z,536.5
2018-11-29T00:03:11.427Z,536.8
2018-11-29T00:04:13.881Z,536.9
2018-11-29T00:05:15.752Z,536.8
2018-11-29T00:06:18.206Z,536.3
2018-11-29T00:07:20.084Z,536
2018-11-29T00:08:22.524Z,535.9
2018-11-29T00:09:24.957Z,535.8
2018-11-29T00:10:27.398Z,536.2
2018-11-29T00:11:29.848Z,536.5
2018-11-29T00:12:32.262Z,536.2
2018-11-29T00:13:34.436Z,537.3
2018-11-29T00:14:36.884Z,537.1
2018-11-29T00:15:39.318Z,537.5
2018-11-29T00:16:41.752Z,536.9
2018-11-29T00:17:44.218Z,536.8
2018-11-29T00:18:46.386Z,536.8
2018-11-29T00:19:48.827Z,537
2018-11-29T00:20:50.998Z,537.4
2018-11-29T00:21:53.157Z,536.8
2018-11-29T00:22:55.327Z,537.1
2018-11-29T00:23:57.756Z,537.2
2018-11-29T00:24:59.960Z,536.9
2018-11-29T00:26:02.388Z,537.5
2018-11-29T00:27:04.832Z,537.4
2018-11-29T00:28:07.275Z,537.7
2018-11-29T00:29:09.417Z,537.9
2018-11-29T00:30:11.573Z,537.9
2018-11-29T00:31:13.711Z,537.8
2018-11-29T00:32:16.154Z,537.5
2018-11-29T00:33:18.596Z,537.9
2018-11-29T00:34:20.745Z,538.1
2018-11-29T00:35:23.203Z,537.8
2018-11-29T00:36:25.364Z,537.4
2018-11-29T00:37:27.801Z,537.7
2018-11-29T00:38:29.959Z,538
2018-11-29T00:39:32.374Z,537.7
2018-11-29T00:40:33.979Z,537.9
2018-11-29T00:41:36.434Z,537.4
2018-11-29T00:42:38.602Z,537.4
2018-11-29T00:43:41.029Z,537.4
2018-11-29T00:44:43.487Z,536.9
2018-11-29T00:45:45.932Z,536.1
2018-11-29T00:46:48.099Z,536.3
2018-11-29T00:47:50.277Z,536.1
2018-11-29T00:48:52.414Z,536.4
2018-11-29T00:49:54.866Z,536.2
2018-11-29T00:50:57.305Z,536.8
2018-11-29T00:51:59.449Z,536
2018-11-29T00:53:01.880Z,536
2018-11-29T00:54:04.050Z,535.4
2018-11-29T00:55:06.227Z,535.2
2018-11-29T00:56:08.371Z,535.8
2018-11-29T00:57:10.795Z,535.8
2018-11-29T00:58:13.230Z,535.9
2018-11-29T00:59:15.662Z,536.1
2018-11-29T01:00:18.089Z,536
2018-11-29T01:01:20.260Z,536
2018-11-29T01:02:22.132Z,536.5
2018-11-29T01:03:24.565Z,537.1
2018-11-29T01:04:26.728Z,536.8
2018-11-29T01:05:29.156Z,536.9
2018-11-29T01:06:31.319Z,537.8
2018-11-29T01:07:33.761Z,537.5
2018-11-29T01:08:36.182Z,537.7
2018-11-29T01:09:38.612Z,537.5
2018-11-29T01:10:41.048Z,537.4
2018-11-29T01:11:43.475Z,537.5
2018-11-29T01:12:45.638Z,537.5
2018-11-29T01:13:48.070Z,537.1
2018-11-29T01:14:50.218Z,537.1
2018-11-29T01:15:52.111Z,537.1
2018-11-29T01:16:54.545Z,537
2018-11-29T01:17:56.431Z,536.8
2018-11-29T01:18:58.886Z,537.4
2018-11-29T01:20:01.319Z,536.8
2018-11-29T01:21:03.745Z,536.7
2018-11-29T01:22:05.910Z,536.8
2018-11-29T01:23:08.364Z,537.1
2018-11-29T01:24:10.531Z,536.9
2018-11-29T01:25:12.978Z,536.8
2018-11-29T01:26:15.438Z,537.7
2018-11-29T01:27:17.887Z,537.3
2018-11-29T01:28:20.312Z,537.7
2018-11-29T01:29:22.754Z,537.5
2018-11-29T01:30:25.179Z,537.5
2018-11-29T01:31:27.334Z,537.5
2018-11-29T01:32:29.486Z,537.4
2018-11-29T01:33:31.648Z,537.7
2018-11-29T01:34:33.792Z,537
2018-11-29T01:35:36.229Z,537.1
2018-11-29T01:36:38.661Z,537
2018-11-29T01:37:40.825Z,537.8
2018-11-29T01:38:42.976Z,537.3
2018-11-29T01:39:45.408Z,537.3
2018-11-29T01:40:47.847Z,537
2018-11-29T01:41:50.291Z,536.9
2018-11-29T01:42:52.439Z,537.3
2018-11-29T01:43:54.596Z,537.4
2018-11-29T01:44:56.767Z,537.5
2018-11-29T01:45:59.196Z,537.1
2018-11-29T01:47:01.636Z,537.8
2018-11-29T01:48:04.068Z,537.6
2018-11-29T01:49:06.228Z,537.5
2018-11-29T01:50:08.396Z,537.4
2018-11-29T01:51:10.560Z,537.4
2018-11-29T01:52:12.994Z,537.4
2018-11-29T01:53:15.431Z,537.4
2018-11-29T01:54:17.582Z,537.4
2018-11-29T01:55:20.010Z,537.3
2018-11-29T01:56:22.437Z,536.9
2018-11-29T01:57:24.868Z,537.1
2018-11-29T01:58:27.024Z,536.7
2018-11-29T01:59:29.450Z,537.3
2018-11-29T02:00:31.308Z,537
2018-11-29T02:01:33.746Z,536.5
2018-11-29T02:02:35.630Z,536.4
2018-11-29T02:03:38.081Z,536.8
2018-11-29T02:04:40.520Z,536.3
2018-11-29T02:05:42.688Z,536.5
2018-11-29T02:06:44.851Z,536.7
2018-11-29T02:07:47.038Z,537.5
2018-11-29T02:08:49.481Z,537.8
2018-11-29T02:09:51.646Z,537.9
2018-11-29T02:10:54.077Z,538
2018-11-29T02:11:56.528Z,537.8
2018-11-29T02:12:58.665Z,537.9
2018-11-29T02:14:00.531Z,537.9
2018-11-29T02:15:02.956Z,538.1
2018-11-29T02:16:04.831Z,538.5
2018-11-29T02:17:07.260Z,538.1
2018-11-29T02:18:09.687Z,538.4
2018-11-29T02:19:11.864Z,538.1
2018-11-29T02:20:14.293Z,538.9
2018-11-29T02:21:16.732Z,538.8
2018-11-29T02:22:19.160Z,538.8
2018-11-29T02:23:21.628Z,538.8
2018-11-29T02:24:24.074Z,538.7
2018-11-29T02:25:26.507Z,539
2018-11-29T02:26:28.676Z,539.2
2018-11-29T02:27:30.828Z,539.7
2018-11-29T02:28:33.265Z,540
2018-11-29T02:29:35.440Z,540
2018-11-29T02:30:37.595Z,540.5
2018-11-29T02:31:40.027Z,541.1
2018-11-29T02:32:41.923Z,540.9
2018-11-29T02:33:44.363Z,541.5
2018-11-29T02:34:46.797Z,542
2018-11-29T02:35:48.971Z,542.4
2018-11-29T02:36:50.852Z,542.6
2018-11-29T02:37:53.287Z,543.1
2018-11-29T02:38:55.174Z,543.4
2018-11-29T02:39:57.325Z,543
2018-11-29T02:40:59.216Z,543.4
2018-11-29T02:42:01.429Z,543
2018-11-29T02:43:03.855Z,542.8
2018-11-29T02:44:06.007Z,543.1
2018-11-29T02:45:08.449Z,543.2
2018-11-29T02:46:10.880Z,542.8
2018-11-29T02:47:13.042Z,543
2018-11-29T02:48:14.931Z,543.3
2018-11-29T02:49:17.111Z,543.4
2018-11-29T02:50:19.549Z,543.3
2018-11-29T02:51:22.001Z,543.2
2018-11-29T02:52:24.425Z,543.1
2018-11-29T02:53:26.584Z,542.9
2018-11-29T02:54:29.036Z,543
2018-11-29T02:55:31.462Z,542.7
2018-11-29T02:56:33.621Z,542.4
2018-11-29T02:57:36.048Z,542.5
2018-11-29T02:58:38.480Z,542.1
2018-11-29T02:59:40.907Z,542
2018-11-29T03:00:43.364Z,542.2
2018-11-29T03:01:45.527Z,542.1
2018-11-29T03:02:47.665Z,542.1
2018-11-29T03:03:50.091Z,541.8
2018-11-29T03:04:52.524Z,541.7
2018-11-29T03:05:54.960Z,541.9
2018-11-29T03:06:57.124Z,541.6
2018-11-29T03:07:59.327Z,542.1
2018-11-29T03:09:01.750Z,542.2
2018-11-29T03:10:04.179Z,542.4
2018-11-29T03:11:06.606Z,542.4
2018-11-29T03:12:09.037Z,542.4
2018-11-29T03:13:10.895Z,542.7
2018-11-29T03:14:13.031Z,543.1
2018-11-29T03:15:15.638Z,543.1
2018-11-29T03:16:18.068Z,543
2018-11-29T03:17:20.240Z,542.9
2018-11-29T03:18:22.668Z,542.7
2018-11-29T03:19:24.828Z,542.8
2018-11-29T03:20:27.258Z,542.9
2018-11-29T03:21:29.685Z,543
2018-11-29T03:22:32.131Z,543.3
2018-11-29T03:23:34.291Z,543.5
2018-11-29T03:24:36.734Z,543.6
2018-11-29T03:25:38.892Z,544.1
2018-11-29T03:26:41.317Z,544.3
2018-11-29T03:27:43.773Z,544.8
2018-11-29T03:28:45.644Z,544.8
2018-11-29T03:29:48.074Z,544.7
2018-11-29T03:30:50.587Z,544.9
2018-11-29T03:31:53.010Z,545.1
2018-11-29T03:32:55.183Z,545.4
2018-11-29T03:33:57.341Z,545.2
2018-11-29T03:34:59.788Z,545.6
2018-11-29T03:36:02.212Z,545.1
2018-11-29T03:37:04.638Z,545.1
2018-11-29T03:38:07.069Z,545.3
2018-11-29T03:39:09.227Z,545.4
2018-11-29T03:40:11.655Z,545.5
2018-11-29T03:41:13.823Z,545.4
2018-11-29T03:42:16.256Z,546
2018-11-29T03:43:18.690Z,546.1
2018-11-29T03:44:20.848Z,546.3
2018-11-29T03:45:23.282Z,546.6
2018-11-29T03:46:25.445Z,547.1
2018-11-29T03:47:27.588Z,547.3
2018-11-29T03:48:30.018Z,547.9
2018-11-29T03:49:31.908Z,548.1
2018-11-29T03:50:33.777Z,548.4
2018-11-29T03:51:36.282Z,547.7
2018-11-29T03:52:38.709Z,548.6
2018-11-29T03:53:41.148Z,548.6
2018-11-29T03:54:43.037Z,547.9
2018-11-29T03:55:45.474Z,548
2018-11-29T03:56:47.893Z,547.5
2018-11-29T03:57:50.063Z,547.4
2018-11-29T03:58:52.498Z,546.8
2018-11-29T03:59:54.384Z,547.1
2018-11-29T04:00:56.840Z,547.4
2018-11-29T04:01:59.011Z,547.5
2018-11-29T04:03:01.191Z,547
2018-11-29T04:04:03.631Z,547.3
2018-11-29T04:05:06.058Z,547.3
2018-11-29T04:06:08.239Z,547.6
2018-11-29T04:07:10.405Z,547.7
2018-11-29T04:08:12.566Z,547.6
2018-11-29T04:09:15.009Z,547.3
2018-11-29T04:10:17.434Z,547.1
2018-11-29T04:11:19.318Z,548.9
2018-11-29T04:12:21.758Z,548.7
2018-11-29T04:13:24.194Z,549.1
2018-11-29T04:14:26.350Z,549.1
2018-11-29T04:15:28.515Z,548.9
2018-11-29T04:16:30.399Z,549
2018-11-29T04:17:32.317Z,548.7
2018-11-29T04:18:34.755Z,547.9
2018-11-29T04:19:37.188Z,548.3
2018-11-29T04:20:39.632Z,548.7
2018-11-29T04:21:42.069Z,549
2018-11-29T04:22:44.492Z,548.7
2018-11-29T04:23:46.399Z,549.1
2018-11-29T04:24:48.827Z,549.2
2018-11-29T04:25:51.006Z,549.2
2018-11-29T04:26:53.159Z,549.2
2018-11-29T04:27:55.588Z,549.1
2018-11-29T04:28:57.755Z,548.9
2018-11-29T04:30:00.192Z,548.6
2018-11-29T04:31:02.616Z,548.7
2018-11-29T04:32:04.807Z,548.4
2018-11-29T04:33:07.250Z,548.3
2018-11-29T04:34:09.688Z,547.7
2018-11-29T04:35:12.110Z,547.6
2018-11-29T04:36:14.582Z,548.9
2018-11-29T04:37:16.745Z,548.8
2018-11-29T04:38:18.896Z,549.5
2018-11-29T04:39:21.065Z,549.5
2018-11-29T04:40:23.220Z,549.2
2018-11-29T04:41:25.368Z,549.9
2018-11-29T04:42:27.500Z,549.8
2018-11-29T04:43:29.926Z,550.3
2018-11-29T04:44:32.380Z,549.8
2018-11-29T04:45:34.808Z,549.6
2018-11-29T04:46:37.237Z,549.8
2018-11-29T04:47:39.680Z,549.5
2018-11-29T04:48:42.171Z,550.1
2018-11-29T04:49:44.682Z,550.1
2018-11-29T04:50:47.151Z,550.2
2018-11-29T04:51:49.590Z,550.6
2018-11-29T04:52:52.026Z,550.9
2018-11-29T04:53:54.481Z,551.4
2018-11-29T04:54:56.657Z,551.6
2018-11-29T04:55:58.819Z,551.8
2018-11-29T04:57:01.000Z,551.9
2018-11-29T04:58:03.201Z,552.2
2018-11-29T04:59:05.367Z,551.9
2018-11-29T05:00:07.293Z,552.1
2018-11-29T05:01:09.731Z,552.1
2018-11-29T05:02:13.530Z,552.1
2018-11-29T05:03:15.696Z,552.4
2018-11-29T05:04:18.141Z,552.1
2018-11-29T05:05:20.577Z,552.2
2018-11-29T05:06:23.118Z,552.6
2018-11-29T05:07:25.256Z,552.3
2018-11-29T05:08:27.130Z,552.4
2018-11-29T05:09:29.308Z,552.1
2018-11-29T05:10:31.454Z,552.4
2018-11-29T05:11:33.623Z,552.6
2018-11-29T05:12:35.782Z,552.3
2018-11-29T05:13:37.946Z,552.2
2018-11-29T05:14:40.375Z,551.9
2018-11-29T05:15:42.815Z,551.6
2018-11-29T05:16:44.979Z,552.2
2018-11-29T05:17:47.133Z,551.8
2018-11-29T05:18:49.568Z,551.9
2018-11-29T05:19:51.733Z,552
2018-11-29T05:20:54.164Z,551.8
2018-11-29T05:21:56.593Z,552.2
2018-11-29T05:22:59.035Z,551.8
2018-11-29T05:24:01.470Z,551.8
2018-11-29T05:25:03.898Z,551.8
2018-11-29T05:26:06.339Z,551.6
2018-11-29T05:27:08.503Z,552.1
2018-11-29T05:28:10.932Z,552
2018-11-29T05:29:12.805Z,551.9
2018-11-29T05:30:14.665Z,552.1
2018-11-29T05:31:16.832Z,552.3
2018-11-29T05:32:19.277Z,552.5
2018-11-29T05:33:21.438Z,553
2018-11-29T05:34:23.637Z,553.2
2018-11-29T05:35:25.212Z,553
2018-11-29T05:36:27.649Z,553.1
2018-11-29T05:37:29.809Z,552.8
2018-11-29T05:38:31.988Z,552.6
2018-11-29T05:39:34.147Z,552.7
2018-11-29T05:40:36.308Z,552.8
2018-11-29T05:41:38.736Z,552.1
2018-11-29T05:42:40.909Z,552.3
2018-11-29T05:43:43.252Z,551.9
2018-11-29T05:44:45.145Z,551.9
2018-11-29T05:45:47.608Z,552.2
2018-11-29T05:46:49.482Z,551.9
2018-11-29T05:47:51.930Z,552.1
2018-11-29T05:48:54.099Z,552
2018-11-29T05:49:56.254Z,552
2018-11-29T05:50:58.145Z,552
2018-11-29T05:52:00.039Z,552
2018-11-29T05:53:02.480Z,552.1
2018-11-29T05:54:04.917Z,552.2
2018-11-29T05:55:07.348Z,552.1
2018-11-29T05:56:09.780Z,551.8
2018-11-29T05:57:11.675Z,551.8
2018-11-29T05:58:14.117Z,551.9
2018-11-29T05:59:16.538Z,551.6
2018-11-29T06:00:18.695Z,551.6
2018-11-29T06:01:21.125Z,551.4
2018-11-29T06:02:23.568Z,551.8
2018-11-29T06:03:26.012Z,551.9
2018-11-29T06:04:28.187Z,552.1
2018-11-29T06:05:30.624Z,552.7
2018-11-29T06:06:33.064Z,552.4
2018-11-29T06:07:35.479Z,552.5
2018-11-29T06:08:37.917Z,552.9
2018-11-29T06:09:40.346Z,552.9
2018-11-29T06:10:42.785Z,552.9
2018-11-29T06:11:44.989Z,553.1
2018-11-29T06:12:47.745Z,553.2
2018-11-29T06:13:50.046Z,553.2
2018-11-29T06:14:52.519Z,553.5
2018-11-29T06:15:54.956Z,553.2
2018-11-29T06:16:57.387Z,553.3
2018-11-29T06:17:59.546Z,553.2
2018-11-29T06:19:01.425Z,553.8
2018-11-29T06:20:03.586Z,553.8
2018-11-29T06:21:06.030Z,553.9
2018-11-29T06:22:07.941Z,553.4
2018-11-29T06:23:10.113Z,553.5
2018-11-29T06:25:17.533Z,553.1
2018-11-29T06:26:19.697Z,552.4
2018-11-29T06:27:22.118Z,552.5
2018-11-29T06:28:24.281Z,552.9
2018-11-29T06:29:26.718Z,552.3
2018-11-29T06:30:28.868Z,552.5
2018-11-29T06:31:31.029Z,552.5
2018-11-29T06:32:33.200Z,552.2
2018-11-29T06:33:35.066Z,552.3
2018-11-29T06:34:37.240Z,551.9
2018-11-29T06:35:39.385Z,552
2018-11-29T06:36:41.553Z,551.8
2018-11-29T06:37:43.759Z,551.7
2018-11-29T06:38:46.198Z,551.4
2018-11-29T06:39:48.390Z,551.4
2018-11-29T06:40:50.248Z,551.4
2018-11-29T06:41:52.400Z,551.7
2018-11-29T06:42:54.831Z,551.9
2018-11-29T06:43:56.987Z,551.9
2018-11-29T06:44:59.422Z,552
2018-11-29T06:46:01.578Z,552.2
2018-11-29T06:47:03.751Z,552.6
2018-11-29T06:48:06.195Z,553
2018-11-29T06:49:08.058Z,552.7
2018-11-29T06:50:10.492Z,553.1
2018-11-29T06:51:13.567Z,553
2018-11-29T06:52:15.430Z,553.7
2018-11-29T06:53:17.863Z,553.7
2018-11-29T06:54:19.769Z,554.3
2018-11-29T06:55:22.196Z,554.3
2018-11-29T06:56:24.650Z,554.2
2018-11-29T06:57:26.816Z,554.7
2018-11-29T06:58:29.248Z,555
2018-11-29T06:59:31.128Z,555.4
2018-11-29T07:00:33.559Z,555.7
2018-11-29T07:01:35.709Z,555.5
2018-11-29T07:02:38.140Z,555.7
2018-11-29T07:03:40.575Z,556.1
2018-11-29T07:04:42.730Z,555.6
2018-11-29T07:05:44.612Z,555.9
2018-11-29T07:06:46.769Z,555.7
2018-11-29T07:07:48.928Z,555.7
2018-11-29T07:08:51.091Z,555.4
2018-11-29T07:09:53.523Z,555.8
2018-11-29T07:10:55.668Z,555.6
2018-11-29T07:11:57.873Z,555.8
2018-11-29T07:12:59.494Z,555.6
2018-11-29T07:14:01.926Z,555.6
2018-11-29T07:15:04.362Z,555.5
2018-11-29T07:16:06.788Z,555.1
2018-11-29T07:17:08.950Z,555.2
2018-11-29T07:18:11.375Z,555
2018-11-29T07:20:18.502Z,554.5
2018-11-29T07:21:20.946Z,554.1
2018-11-29T07:22:23.113Z,554.2
2018-11-29T07:23:25.308Z,553.9
2018-11-29T07:24:27.762Z,553.7
2018-11-29T07:25:30.198Z,553.9
2018-11-29T07:26:31.810Z,554.2
2018-11-29T07:27:33.429Z,554.2
2018-11-29T07:28:35.602Z,554
2018-11-29T07:29:38.045Z,554
2018-11-29T07:30:40.549Z,554.1
2018-11-29T07:31:43.021Z,554.1
2018-11-29T07:32:45.189Z,554.6
2018-11-29T07:33:47.629Z,554.8
2018-11-29T07:34:49.797Z,554.8
2018-11-29T07:35:51.952Z,554.3
2018-11-29T07:36:54.397Z,554.7
2018-11-29T07:37:56.554Z,554.7
2018-11-29T07:38:58.998Z,554.3
2018-11-29T07:40:01.449Z,554.5
2018-11-29T07:41:03.580Z,554.2
2018-11-29T07:42:06.016Z,554.4
2018-11-29T07:43:08.456Z,554.7
2018-11-29T07:44:10.922Z,554.9
2018-11-29T07:45:12.921Z,554.7
2018-11-29T07:46:14.808Z,555.4
2018-11-29T07:47:16.970Z,555.4
2018-11-29T07:48:19.150Z,555.4
2018-11-29T07:49:20.740Z,555.7
2018-11-29T07:50:23.191Z,555.8
2018-11-29T07:51:25.090Z,556.1
2018-11-29T07:52:27.521Z,556.7
2018-11-29T07:53:29.950Z,556.2
2018-11-29T07:54:32.088Z,556.6
2018-11-29T07:55:34.242Z,556.9
2018-11-29T07:56:36.389Z,557.1
2018-11-29T07:57:38.545Z,557
2018-11-29T07:58:40.978Z,556.9
2018-11-29T07:59:43.418Z,557.2
2018-11-29T08:00:45.853Z,557.4
2018-11-29T08:01:48.021Z,557.8
2018-11-29T08:02:49.897Z,557.6
2018-11-29T08:03:52.081Z,557.8
2018-11-29T08:04:53.980Z,558
2018-11-29T08:05:56.137Z,557.6
2018-11-29T08:06:58.573Z,558
2018-11-29T08:08:01.020Z,557.7
2018-11-29T08:09:03.461Z,558.1
2018-11-29T08:10:05.603Z,557.3
2018-11-29T08:11:08.046Z,557.8
2018-11-29T08:12:10.478Z,557.4
2018-11-29T08:13:12.634Z,557
2018-11-29T08:14:15.064Z,557
2018-11-29T08:15:17.250Z,556.6
2018-11-29T08:16:19.690Z,556.3
2018-11-29T08:17:22.162Z,556
2018-11-29T08:18:24.053Z,556.1
2018-11-29T08:19:26.508Z,556.6
2018-11-29T08:20:28.405Z,556.9
2018-11-29T08:21:30.853Z,556.8
2018-11-29T08:22:33.044Z,556.9
2018-11-29T08:23:35.177Z,556.7
2018-11-29T08:24:37.607Z,557
2018-11-29T08:25:40.028Z,556.5
2018-11-29T08:26:42.486Z,556.8
2018-11-29T08:27:44.639Z,556.8
2018-11-29T08:28:47.082Z,556.8
2018-11-29T08:29:49.516Z,557.2
2018-11-29T08:30:51.959Z,557.2
2018-11-29T08:31:54.397Z,557.2
2018-11-29T08:32:56.559Z,557.8
2018-11-29T08:33:59.031Z,558.1
2018-11-29T08:35:01.169Z,558.5
2018-11-29T08:36:03.619Z,558.5
2018-11-29T08:37:06.057Z,558.5
2018-11-29T08:38:08.217Z,558.6
2018-11-29T08:39:10.653Z,558.2
2018-11-29T08:40:13.078Z,558.4
2018-11-29T08:41:14.981Z,558.5
2018-11-29T08:42:17.130Z,558
2018-11-29T08:43:19.313Z,557.8
2018-11-29T08:44:21.471Z,558.6
2018-11-29T08:45:23.637Z,558.7
2018-11-29T08:46:25.801Z,558.8
2018-11-29T08:47:28.256Z,559.3
2018-11-29T08:48:30.688Z,559.4
2018-11-29T08:49:32.838Z,559.7
2018-11-29T08:50:35.280Z,559.2
2018-11-29T08:51:37.713Z,559.5
2018-11-29T08:52:39.612Z,559.5
2018-11-29T08:53:42.044Z,559.9
2018-11-29T08:54:44.217Z,559.9
2018-11-29T08:55:46.387Z,560.3
2018-11-29T08:56:48.827Z,560.6
2018-11-29T08:57:51.258Z,560.7
2018-11-29T08:58:53.429Z,561
2018-11-29T08:59:55.856Z,561.2
2018-11-29T09:00:57.740Z,561.2
2018-11-29T09:01:59.885Z,560.9
2018-11-29T09:03:01.482Z,561.5
2018-11-29T09:04:03.656Z,560.9
2018-11-29T09:05:06.096Z,561.3
2018-11-29T09:06:08.264Z,561.3
2018-11-29T09:07:10.700Z,561.8
2018-11-29T09:08:13.135Z,561.6
2018-11-29T09:09:15.305Z,562.2
2018-11-29T09:10:16.919Z,561.9
2018-11-29T09:11:19.356Z,561.7
2018-11-29T09:12:21.523Z,562.3
2018-11-29T09:13:23.950Z,561.9
2018-11-29T09:14:26.381Z,561.8
2018-11-29T09:15:28.814Z,561.7
2018-11-29T09:16:31.244Z,561.7
2018-11-29T09:17:33.128Z,562
2018-11-29T09:18:35.565Z,561.4
2018-11-29T09:19:39.188Z,561.9
2018-11-29T09:20:41.360Z,561.6
2018-11-29T09:21:43.525Z,561.9
2018-11-29T09:22:45.954Z,562.1
2018-11-29T09:23:48.127Z,561.9
2018-11-29T09:24:50.278Z,561.9
2018-11-29T09:25:52.148Z,561.6
2018-11-29T09:26:54.297Z,561.8
2018-11-29T09:27:56.439Z,562.2
2018-11-29T09:28:58.600Z,562.4
2018-11-29T09:30:00.771Z,562.5
2018-11-29T09:31:02.621Z,562.8
2018-11-29T09:32:05.049Z,563.1
2018-11-29T09:33:06.670Z,563.2
2018-11-29T09:34:09.098Z,563.1
2018-11-29T09:35:11.526Z,563.4
2018-11-29T09:36:13.964Z,563.1
2018-11-29T09:37:15.586Z,563.4
2018-11-29T09:38:17.456Z,563
2018-11-29T09:39:19.615Z,562.9
2018-11-29T09:40:21.527Z,563.1
2018-11-29T09:41:23.686Z,563.1
2018-11-29T09:42:25.880Z,563.1
2018-11-29T09:43:28.029Z,563.8
2018-11-29T09:44:30.178Z,563.9
2018-11-29T09:45:32.045Z,564.3
2018-11-29T09:46:33.655Z,564.7
2018-11-29T09:47:35.830Z,564.6
2018-11-29T09:48:37.719Z,564.7
2018-11-29T09:49:39.607Z,565.1
2018-11-29T09:50:42.028Z,565.2
2018-11-29T09:51:43.626Z,565.4
2018-11-29T09:52:45.516Z,566.1
2018-11-29T09:53:47.681Z,565.9
2018-11-29T09:54:50.106Z,567
2018-11-29T09:55:51.970Z,567.3
2018-11-29T09:56:53.883Z,567.2
2018-11-29T09:57:56.036Z,567.6
2018-11-29T09:58:58.478Z,567.9
2018-11-29T10:00:00.908Z,567.5
2018-11-29T10:01:03.088Z,567.9
2018-11-29T10:02:05.519Z,567.9
2018-11-29T10:03:07.949Z,567.9
2018-11-29T10:04:10.397Z,567.9
2018-11-29T10:05:12.295Z,567.8
2018-11-29T10:06:14.731Z,567.8
2018-11-29T10:07:16.908Z,567.3
2018-11-29T10:08:25.869Z,567.2
2018-11-29T10:09:25.988Z,566.9
2018-11-29T10:10:28.142Z,566.7
2018-11-29T10:11:30.302Z,566.3
2018-11-29T10:12:32.462Z,565.7
2018-11-29T10:13:34.605Z,565.9
2018-11-29T10:14:37.057Z,565.8
2018-11-29T10:15:39.495Z,566.4
2018-11-29T10:16:41.939Z,566.1
2018-11-29T10:17:44.099Z,565.8
2018-11-29T10:18:45.967Z,565.9
2018-11-29T10:19:48.415Z,565.7
2018-11-29T10:20:50.917Z,565.4
2018-11-29T10:21:53.339Z,565.8
2018-11-29T10:22:55.506Z,565.7
2018-11-29T10:23:57.935Z,565.4
2018-11-29T10:25:00.111Z,566.3
2018-11-29T10:26:02.297Z,565.7
2018-11-29T10:27:04.442Z,567.1
2018-11-29T10:28:06.351Z,566.9
2018-11-29T10:29:08.528Z,567.4
2018-11-29T10:30:10.687Z,567.1
2018-11-29T10:31:12.848Z,567.2
2018-11-29T10:32:15.281Z,567.5
2018-11-29T10:33:17.733Z,567.8
2018-11-29T10:34:19.888Z,568
2018-11-29T10:35:22.056Z,568.1
2018-11-29T10:36:24.200Z,568.1
2018-11-29T10:37:26.385Z,568.1
2018-11-29T10:38:28.266Z,568.3
2018-11-29T10:39:30.803Z,568.3
2018-11-29T10:40:33.231Z,568.2
2018-11-29T10:41:35.398Z,568.7
2018-11-29T10:42:37.843Z,568.7
2018-11-29T10:43:40.276Z,568.6
2018-11-29T10:44:42.439Z,568.7
2018-11-29T10:45:45.020Z,568.6
2018-11-29T10:46:47.189Z,568.9
2018-11-29T10:48:54.322Z,569.4
2018-11-29T10:49:56.479Z,569.6
2018-11-29T10:50:58.621Z,569.9
2018-11-29T10:52:00.784Z,569.9
2018-11-29T10:53:03.237Z,570.1
2018-11-29T10:54:05.398Z,570.2
2018-11-29T10:55:07.845Z,570.5
2018-11-29T10:56:10.003Z,570.5
2018-11-29T10:57:11.884Z,570.8
2018-11-29T10:58:14.048Z,570.4
2018-11-29T10:59:16.486Z,570.8
2018-11-29T11:00:18.919Z,570.8
2018-11-29T11:01:21.371Z,570.6
2018-11-29T11:02:23.817Z,570.8
2018-11-29T11:03:25.992Z,570.4
2018-11-29T11:04:28.433Z,571.1
2018-11-29T11:05:30.877Z,570.8
2018-11-29T11:06:33.331Z,571.3
2018-11-29T11:07:35.780Z,571.9
2018-11-29T11:08:37.671Z,572
2018-11-29T11:09:40.110Z,572.5
2018-11-29T11:10:42.541Z,572.1
2018-11-29T11:11:44.693Z,572.9
2018-11-29T11:12:46.279Z,572.6
2018-11-29T11:13:48.440Z,573
2018-11-29T11:14:50.872Z,573.2
2018-11-29T11:15:53.024Z,572.7
2018-11-29T11:16:55.488Z,572.6
2018-11-29T11:17:57.659Z,572.5
2018-11-29T11:18:59.844Z,572.6
2018-11-29T11:20:02.017Z,572.9
2018-11-29T11:21:04.149Z,573.1
2018-11-29T11:22:06.581Z,573
2018-11-29T11:23:08.767Z,573.4
2018-11-29T11:24:11.208Z,573.4
2018-11-29T11:25:13.649Z,573.3
2018-11-29T11:26:16.090Z,572.8
2018-11-29T11:27:18.517Z,572.7
2018-11-29T11:28:20.117Z,572.8
2018-11-29T11:29:22.555Z,572.6
2018-11-29T11:30:24.413Z,573.1
2018-11-29T11:32:31.836Z,573
2018-11-29T11:33:33.699Z,573
2018-11-29T11:34:35.873Z,573
2018-11-29T11:35:37.791Z,573.5
2018-11-29T11:36:40.248Z,573.6
2018-11-29T11:37:42.461Z,574.4
2018-11-29T11:38:44.900Z,574.7
2018-11-29T11:39:47.330Z,575.1
2018-11-29T11:40:49.223Z,575.3
2018-11-29T11:41:51.651Z,575.4
2018-11-29T11:42:54.127Z,575.9
2018-11-29T11:43:56.558Z,575.9
2018-11-29T11:44:59.018Z,575.8
2018-11-29T11:46:01.289Z,575.7
2018-11-29T11:47:03.201Z,575.6
2018-11-29T11:48:05.474Z,575.6
2018-11-29T11:49:07.350Z,576
2018-11-29T11:51:14.757Z,576.7
2018-11-29T11:52:16.907Z,577
2018-11-29T11:53:19.081Z,577.4
2018-11-29T11:54:21.516Z,577.8
2018-11-29T11:56:29.617Z,578.3
2018-11-29T11:57:31.838Z,578.5
2018-11-29T11:58:34.004Z,578.8
2018-11-29T11:59:36.451Z,579
2018-11-29T12:00:38.889Z,578.9
2018-11-29T12:01:41.347Z,578.7
2018-11-29T12:02:44.162Z,579
2018-11-29T12:03:46.349Z,578.8
2018-11-29T12:04:50.672Z,578.8
2018-11-29T12:05:53.148Z,579.1
2018-11-29T12:06:55.648Z,579.1
2018-11-29T12:07:58.114Z,579
2018-11-29T12:09:00.305Z,578.7
2018-11-29T12:10:02.809Z,578.8
2018-11-29T12:11:05.322Z,579.2
2018-11-29T12:12:07.887Z,578.8
2018-11-29T12:13:10.405Z,578.7
2018-11-29T12:14:12.821Z,578.7
2018-11-29T12:15:15.274Z,578.8
2018-11-29T12:16:17.451Z,578.8
2018-11-29T12:17:19.889Z,578.9
2018-11-29T12:18:22.149Z,578.9
2018-11-29T12:19:24.308Z,579
2018-11-29T12:20:26.740Z,579.3
2018-11-29T12:21:29.218Z,579
2018-11-29T12:22:31.388Z,578.8
2018-11-29T12:23:33.837Z,578.8
2018-11-29T12:24:36.297Z,578.9
2018-11-29T12:25:38.715Z,578.8
2018-11-29T12:26:41.156Z,579.1
2018-11-29T12:27:43.580Z,578.9
2018-11-29T12:28:45.494Z,579.3
2018-11-29T12:29:47.656Z,579.6
2018-11-29T12:30:50.107Z,579.6
2018-11-29T12:31:52.284Z,579.6
2018-11-29T12:32:54.432Z,579.3
2018-11-29T12:33:56.860Z,579.5
2018-11-29T12:34:59.009Z,579.8
2018-11-29T12:36:00.927Z,580
2018-11-29T12:37:03.382Z,579.6
2018-11-29T12:38:05.798Z,579.9
2018-11-29T12:39:08.253Z,579.8
2018-11-29T12:40:10.446Z,580.3
2018-11-29T12:41:12.328Z,579.9
2018-11-29T12:42:14.768Z,580.5
2018-11-29T12:43:16.676Z,579.8
2018-11-29T12:44:18.829Z,579.9
2018-11-29T12:45:21.021Z,580.1
2018-11-29T12:46:23.538Z,580.6
2018-11-29T12:47:25.995Z,580.1
2018-11-29T12:48:28.407Z,580.5
2018-11-29T12:49:30.839Z,580
2018-11-29T12:50:33.021Z,580
2018-11-29T12:51:35.471Z,580
2018-11-29T12:52:37.969Z,580
2018-11-29T12:53:40.442Z,580.6
2018-11-29T12:54:42.921Z,581.1
2018-11-29T12:55:45.421Z,581.5
2018-11-29T12:56:47.647Z,581.5
2018-11-29T12:58:55.132Z,581.5
2018-11-29T12:59:57.637Z,581.6
2018-11-29T13:01:00.105Z,581.5
2018-11-29T13:02:01.982Z,581.9
2018-11-29T13:04:07.964Z,582
2018-11-29T13:05:10.119Z,582.1
2018-11-29T13:06:12.548Z,582.1
2018-11-29T13:07:14.986Z,582.2
2018-11-29T13:08:17.155Z,582.3
2018-11-29T13:09:19.320Z,582.6
2018-11-29T13:10:21.753Z,582.8
2018-11-29T13:11:24.219Z,583
2018-11-29T13:12:26.690Z,583.1
2018-11-29T13:13:29.583Z,582.9
2018-11-29T13:14:32.010Z,583
2018-11-29T13:15:34.452Z,583
2018-11-29T13:16:36.970Z,583.3
2018-11-29T13:17:39.412Z,583.4
2018-11-29T13:18:41.861Z,583.3
2018-11-29T13:19:44.055Z,583.1
2018-11-29T13:20:46.512Z,583.4
2018-11-29T13:21:48.942Z,583.5
2018-11-29T13:22:51.390Z,583.9
2018-11-29T13:23:53.824Z,583.8
2018-11-29T13:24:56.274Z,583.5
2018-11-29T13:25:58.744Z,584.3
2018-11-29T13:27:01.190Z,584
2018-11-29T13:28:02.794Z,584.1
2018-11-29T13:29:05.279Z,584.3
2018-11-29T13:30:07.793Z,584.3
2018-11-29T13:31:09.980Z,584.3
2018-11-29T13:32:12.490Z,584.4
2018-11-29T13:33:14.715Z,584.4
2018-11-29T13:34:16.904Z,584.5
2018-11-29T13:35:18.839Z,584.9